Lake Mitchell, South Dakota
Current Conditions -  °F | °C
As of 6:53 AM on Wednesday 26 Nov 2014 (Local Time) from KMHE Reporting Station
Light Snow Light Snow  
Wind Chill:   Ceiling: 1100
Heat Index: 22°   Visibility: 6mi
Dew Point: 18°   Wind: 22mph
Humidity: 85%   Direction: 340°NNW
Pressure: 30.14"   Gusts: 33mph
Location:  43.7034°N, 98.0626°W
Report Text: KMHE 261253Z AUTO 34019G29KT 6SM -SN BR BKN011 BKN014 OVC035 M06/M08 A3014 RMK AO2 PK WND 36031/1159 CIG 008V012 SLP222 P0000 T10561078 $
Loading
Personal Weather Stations






























Interactive Weather Map New forecast layout! Learn more

10-Day Weather Forecast

Advertisements
Track Severe Weather on mobile